sensor_id;sensor_type;location;lat;lon;timestamp;P1;durP1;ratioP1;P2;durP2;ratioP2
5297;SDS011;14738;42.668;23.250;2023-08-07T00:00:19;2.73;;;2.63;;
5297;SDS011;14738;42.668;23.250;2023-08-07T00:02:44;2.67;;;2.57;;
5297;SDS011;14738;42.668;23.250;2023-08-07T00:05:10;2.93;;;2.73;;
5297;SDS011;14738;42.668;23.250;2023-08-07T00:07:35;2.53;;;2.43;;
5297;SDS011;14738;42.668;23.250;2023-08-07T00:10:01;3.07;;;2.97;;
5297;SDS011;14738;42.668;23.250;2023-08-07T00:12:26;2.80;;;2.70;;
5297;SDS011;14738;42.668;23.250;2023-08-07T00:14:52;4.00;;;2.57;;
5297;SDS011;14738;42.668;23.250;2023-08-07T00:17:18;2.93;;;2.80;;
5297;SDS011;14738;42.668;23.250;2023-08-07T00:19:43;2.93;;;2.80;;
5297;SDS011;14738;42.668;23.250;2023-08-07T00:22:08;2.20;;;2.20;;
5297;SDS011;14738;42.668;23.250;2023-08-07T00:24:34;2.70;;;2.60;;
5297;SDS011;14738;42.668;23.250;2023-08-07T00:27:00;2.60;;;2.50;;
5297;SDS011;14738;42.668;23.250;2023-08-07T00:29:26;2.67;;;2.53;;
5297;SDS011;14738;42.668;23.250;2023-08-07T00:31:51;2.90;;;2.80;;
5297;SDS011;14738;42.668;23.250;2023-08-07T00:34:17;2.50;;;2.40;;
5297;SDS011;14738;42.668;23.250;2023-08-07T00:36:42;2.87;;;2.77;;
5297;SDS011;14738;42.668;23.250;2023-08-07T00:39:08;3.00;;;2.90;;
5297;SDS011;14738;42.668;23.250;2023-08-07T00:41:33;3.10;;;3.00;;
5297;SDS011;14738;42.668;23.250;2023-08-07T00:43:59;2.93;;;2.83;;
5297;SDS011;14738;42.668;23.250;2023-08-07T00:46:26;2.70;;;2.60;;
5297;SDS011;14738;42.668;23.250;2023-08-07T00:48:52;3.03;;;2.83;;
5297;SDS011;14738;42.668;23.250;2023-08-07T00:51:19;2.90;;;2.70;;
5297;SDS011;14738;42.668;23.250;2023-08-07T00:53:45;2.97;;;2.77;;
5297;SDS011;14738;42.668;23.250;2023-08-07T00:56:11;2.80;;;2.70;;
5297;SDS011;14738;42.668;23.250;2023-08-07T00:58:36;3.20;;;3.00;;
5297;SDS011;14738;42.668;23.250;2023-08-07T01:01:02;3.10;;;3.00;;
5297;SDS011;14738;42.668;23.250;2023-08-07T01:03:29;3.30;;;3.10;;
5297;SDS011;14738;42.668;23.250;2023-08-07T01:05:54;2.90;;;2.77;;
5297;SDS011;14738;42.668;23.250;2023-08-07T01:08:20;3.17;;;2.97;;
5297;SDS011;14738;42.668;23.250;2023-08-07T01:13:36;3.30;;;3.10;;
5297;SDS011;14738;42.668;23.250;2023-08-07T01:16:04;3.00;;;2.80;;
5297;SDS011;14738;42.668;23.250;2023-08-07T01:18:41;3.50;;;3.30;;
5297;SDS011;14738;42.668;23.250;2023-08-07T01:21:16;3.60;;;3.40;;
5297;SDS011;14738;42.668;23.250;2023-08-07T01:23:43;3.43;;;3.23;;
5297;SDS011;14738;42.668;23.250;2023-08-07T01:26:08;4.83;;;3.00;;
5297;SDS011;14738;42.668;23.250;2023-08-07T01:28:36;2.80;;;2.70;;
5297;SDS011;14738;42.668;23.250;2023-08-07T01:31:07;3.27;;;3.07;;
5297;SDS011;14738;42.668;23.250;2023-08-07T01:36:31;3.47;;;3.27;;
5297;SDS011;14738;42.668;23.250;2023-08-07T01:38:58;3.90;;;3.70;;
5297;SDS011;14738;42.668;23.250;2023-08-07T01:41:25;3.93;;;3.73;;
5297;SDS011;14738;42.668;23.250;2023-08-07T01:43:52;3.90;;;3.60;;
5297;SDS011;14738;42.668;23.250;2023-08-07T01:46:17;3.47;;;3.27;;
5297;SDS011;14738;42.668;23.250;2023-08-07T01:48:44;3.77;;;3.47;;
5297;SDS011;14738;42.668;23.250;2023-08-07T01:51:09;3.80;;;3.60;;
5297;SDS011;14738;42.668;23.250;2023-08-07T01:53:34;4.10;;;3.80;;
5297;SDS011;14738;42.668;23.250;2023-08-07T01:56:00;3.60;;;3.27;;
5297;SDS011;14738;42.668;23.250;2023-08-07T01:58:25;4.60;;;4.20;;
5297;SDS011;14738;42.668;23.250;2023-08-07T02:00:51;3.60;;;3.40;;
5297;SDS011;14738;42.668;23.250;2023-08-07T02:03:17;6.83;;;3.70;;
5297;SDS011;14738;42.668;23.250;2023-08-07T02:05:44;4.10;;;3.80;;
5297;SDS011;14738;42.668;23.250;2023-08-07T02:08:10;3.73;;;3.50;;
5297;SDS011;14738;42.668;23.250;2023-08-07T02:10:36;3.80;;;3.60;;
5297;SDS011;14738;42.668;23.250;2023-08-07T02:13:02;3.93;;;3.63;;
5297;SDS011;14738;42.668;23.250;2023-08-07T02:15:27;3.90;;;3.70;;
5297;SDS011;14738;42.668;23.250;2023-08-07T02:17:53;4.07;;;3.80;;
5297;SDS011;14738;42.668;23.250;2023-08-07T02:20:18;3.47;;;3.27;;
5297;SDS011;14738;42.668;23.250;2023-08-07T02:22:44;4.70;;;3.70;;
5297;SDS011;14738;42.668;23.250;2023-08-07T02:25:09;3.50;;;3.30;;
5297;SDS011;14738;42.668;23.250;2023-08-07T02:27:35;4.50;;;4.20;;
5297;SDS011;14738;42.668;23.250;2023-08-07T02:30:00;3.77;;;3.57;;
5297;SDS011;14738;42.668;23.250;2023-08-07T02:32:27;3.40;;;3.30;;
5297;SDS011;14738;42.668;23.250;2023-08-07T02:34:53;4.40;;;4.00;;
5297;SDS011;14738;42.668;23.250;2023-08-07T02:37:18;5.07;;;3.70;;
5297;SDS011;14738;42.668;23.250;2023-08-07T02:39:45;5.93;;;3.57;;
5297;SDS011;14738;42.668;23.250;2023-08-07T02:42:11;3.73;;;3.53;;
5297;SDS011;14738;42.668;23.250;2023-08-07T02:44:36;4.70;;;3.93;;
5297;SDS011;14738;42.668;23.250;2023-08-07T02:47:02;3.80;;;3.60;;
5297;SDS011;14738;42.668;23.250;2023-08-07T02:49:28;4.10;;;3.80;;
5297;SDS011;14738;42.668;23.250;2023-08-07T02:51:53;3.90;;;3.70;;
5297;SDS011;14738;42.668;23.250;2023-08-07T02:54:18;4.37;;;4.00;;
5297;SDS011;14738;42.668;23.250;2023-08-07T02:56:44;4.07;;;3.77;;
5297;SDS011;14738;42.668;23.250;2023-08-07T02:59:09;4.63;;;4.23;;
5297;SDS011;14738;42.668;23.250;2023-08-07T03:01:35;5.70;;;5.30;;
5297;SDS011;14738;42.668;23.250;2023-08-07T03:04:00;4.60;;;4.20;;
5297;SDS011;14738;42.668;23.250;2023-08-07T03:06:26;4.23;;;4.03;;
5297;SDS011;14738;42.668;23.250;2023-08-07T03:08:51;4.93;;;4.53;;
5297;SDS011;14738;42.668;23.250;2023-08-07T03:11:16;4.97;;;4.67;;
5297;SDS011;14738;42.668;23.250;2023-08-07T03:13:42;5.47;;;5.17;;
5297;SDS011;14738;42.668;23.250;2023-08-07T03:16:09;5.10;;;4.80;;
5297;SDS011;14738;42.668;23.250;2023-08-07T03:18:34;5.50;;;5.20;;
5297;SDS011;14738;42.668;23.250;2023-08-07T03:21:00;5.33;;;5.00;;
5297;SDS011;14738;42.668;23.250;2023-08-07T03:23:26;5.40;;;4.80;;
5297;SDS011;14738;42.668;23.250;2023-08-07T03:26:08;5.33;;;5.03;;
5297;SDS011;14738;42.668;23.250;2023-08-07T03:28:36;5.20;;;4.80;;
5297;SDS011;14738;42.668;23.250;2023-08-07T03:31:02;5.30;;;4.83;;
5297;SDS011;14738;42.668;23.250;2023-08-07T03:33:28;7.13;;;4.97;;
5297;SDS011;14738;42.668;23.250;2023-08-07T03:35:53;4.57;;;4.27;;
5297;SDS011;14738;42.668;23.250;2023-08-07T03:38:19;5.60;;;5.20;;
5297;SDS011;14738;42.668;23.250;2023-08-07T03:40:45;4.13;;;3.83;;
5297;SDS011;14738;42.668;23.250;2023-08-07T03:43:10;4.43;;;4.13;;
5297;SDS011;14738;42.668;23.250;2023-08-07T03:45:36;4.13;;;3.80;;
5297;SDS011;14738;42.668;23.250;2023-08-07T03:48:01;4.53;;;4.23;;
5297;SDS011;14738;42.668;23.250;2023-08-07T03:50:27;4.90;;;4.60;;
5297;SDS011;14738;42.668;23.250;2023-08-07T03:52:52;4.80;;;4.40;;
5297;SDS011;14738;42.668;23.250;2023-08-07T03:55:17;4.30;;;4.10;;
5297;SDS011;14738;42.668;23.250;2023-08-07T03:57:43;4.17;;;3.87;;
5297;SDS011;14738;42.668;23.250;2023-08-07T04:00:09;3.37;;;3.23;;
5297;SDS011;14738;42.668;23.250;2023-08-07T04:02:35;3.53;;;3.33;;
5297;SDS011;14738;42.668;23.250;2023-08-07T04:05:01;3.60;;;3.40;;
5297;SDS011;14738;42.668;23.250;2023-08-07T04:07:26;3.80;;;3.70;;
5297;SDS011;14738;42.668;23.250;2023-08-07T04:09:51;2.70;;;2.60;;
5297;SDS011;14738;42.668;23.250;2023-08-07T04:12:17;3.10;;;3.00;;
5297;SDS011;14738;42.668;23.250;2023-08-07T04:14:42;3.10;;;3.00;;
5297;SDS011;14738;42.668;23.250;2023-08-07T04:17:08;3.37;;;3.27;;
5297;SDS011;14738;42.668;23.250;2023-08-07T04:19:33;3.37;;;3.10;;
5297;SDS011;14738;42.668;23.250;2023-08-07T04:21:58;3.37;;;3.17;;
5297;SDS011;14738;42.668;23.250;2023-08-07T04:24:24;3.40;;;3.10;;
5297;SDS011;14738;42.668;23.250;2023-08-07T04:26:49;4.73;;;2.93;;
5297;SDS011;14738;42.668;23.250;2023-08-07T04:29:15;3.20;;;3.00;;
5297;SDS011;14738;42.668;23.250;2023-08-07T04:31:40;3.03;;;2.93;;
5297;SDS011;14738;42.668;23.250;2023-08-07T04:34:06;3.60;;;3.30;;
5297;SDS011;14738;42.668;23.250;2023-08-07T04:36:31;3.67;;;3.47;;
5297;SDS011;14738;42.668;23.250;2023-08-07T04:38:58;4.40;;;3.83;;
5297;SDS011;14738;42.668;23.250;2023-08-07T04:41:24;3.27;;;3.00;;
5297;SDS011;14738;42.668;23.250;2023-08-07T04:43:49;3.10;;;3.00;;
5297;SDS011;14738;42.668;23.250;2023-08-07T04:46:15;3.50;;;3.33;;
5297;SDS011;14738;42.668;23.250;2023-08-07T04:48:40;3.37;;;3.17;;
5297;SDS011;14738;42.668;23.250;2023-08-07T04:51:06;3.40;;;3.23;;
5297;SDS011;14738;42.668;23.250;2023-08-07T04:53:31;3.70;;;3.40;;
5297;SDS011;14738;42.668;23.250;2023-08-07T04:55:59;3.77;;;3.47;;
5297;SDS011;14738;42.668;23.250;2023-08-07T04:58:24;4.00;;;3.70;;
5297;SDS011;14738;42.668;23.250;2023-08-07T05:00:54;8.03;;;4.10;;
5297;SDS011;14738;42.668;23.250;2023-08-07T05:03:21;3.67;;;3.47;;
5297;SDS011;14738;42.668;23.250;2023-08-07T05:05:46;3.57;;;3.37;;
5297;SDS011;14738;42.668;23.250;2023-08-07T05:08:12;3.00;;;2.90;;
5297;SDS011;14738;42.668;23.250;2023-08-07T05:10:37;3.10;;;2.80;;
5297;SDS011;14738;42.668;23.250;2023-08-07T05:13:02;3.33;;;3.23;;
5297;SDS011;14738;42.668;23.250;2023-08-07T05:15:28;3.00;;;2.90;;
5297;SDS011;14738;42.668;23.250;2023-08-07T05:17:55;3.10;;;2.90;;
5297;SDS011;14738;42.668;23.250;2023-08-07T05:20:21;2.63;;;2.53;;
5297;SDS011;14738;42.668;23.250;2023-08-07T05:22:46;2.90;;;2.80;;
5297;SDS011;14738;42.668;23.250;2023-08-07T05:25:12;2.60;;;2.50;;
5297;SDS011;14738;42.668;23.250;2023-08-07T05:27:44;2.10;;;2.10;;
5297;SDS011;14738;42.668;23.250;2023-08-07T05:30:10;2.37;;;2.23;;
5297;SDS011;14738;42.668;23.250;2023-08-07T05:32:37;2.80;;;2.70;;
5297;SDS011;14738;42.668;23.250;2023-08-07T05:35:06;2.33;;;2.23;;
5297;SDS011;14738;42.668;23.250;2023-08-07T05:37:35;2.40;;;2.30;;
5297;SDS011;14738;42.668;23.250;2023-08-07T05:40:01;2.67;;;2.57;;
5297;SDS011;14738;42.668;23.250;2023-08-07T05:42:27;2.50;;;2.40;;
5297;SDS011;14738;42.668;23.250;2023-08-07T05:44:53;2.57;;;2.47;;
5297;SDS011;14738;42.668;23.250;2023-08-07T05:47:18;2.53;;;2.43;;
5297;SDS011;14738;42.668;23.250;2023-08-07T05:49:44;4.40;;;2.20;;
5297;SDS011;14738;42.668;23.250;2023-08-07T05:52:09;2.60;;;2.50;;
5297;SDS011;14738;42.668;23.250;2023-08-07T05:54:34;2.90;;;2.70;;
5297;SDS011;14738;42.668;23.250;2023-08-07T05:57:00;2.83;;;2.73;;
5297;SDS011;14738;42.668;23.250;2023-08-07T05:59:26;2.97;;;2.77;;
5297;SDS011;14738;42.668;23.250;2023-08-07T06:01:52;2.83;;;2.73;;
5297;SDS011;14738;42.668;23.250;2023-08-07T06:04:18;2.40;;;2.30;;
5297;SDS011;14738;42.668;23.250;2023-08-07T06:06:44;3.73;;;2.60;;
5297;SDS011;14738;42.668;23.250;2023-08-07T06:09:10;2.57;;;2.37;;
5297;SDS011;14738;42.668;23.250;2023-08-07T06:11:36;3.03;;;2.83;;
5297;SDS011;14738;42.668;23.250;2023-08-07T06:14:01;4.00;;;2.70;;
5297;SDS011;14738;42.668;23.250;2023-08-07T06:16:27;2.13;;;2.03;;
5297;SDS011;14738;42.668;23.250;2023-08-07T06:18:53;2.20;;;2.10;;
5297;SDS011;14738;42.668;23.250;2023-08-07T06:21:18;2.50;;;2.40;;
5297;SDS011;14738;42.668;23.250;2023-08-07T06:23:45;2.20;;;2.10;;
5297;SDS011;14738;42.668;23.250;2023-08-07T06:26:11;2.40;;;2.30;;
5297;SDS011;14738;42.668;23.250;2023-08-07T06:28:37;2.63;;;2.53;;
5297;SDS011;14738;42.668;23.250;2023-08-07T06:31:04;2.70;;;2.60;;
5297;SDS011;14738;42.668;23.250;2023-08-07T06:33:30;2.40;;;2.30;;
5297;SDS011;14738;42.668;23.250;2023-08-07T06:35:57;2.20;;;2.10;;
5297;SDS011;14738;42.668;23.250;2023-08-07T06:38:22;2.10;;;2.00;;
5297;SDS011;14738;42.668;23.250;2023-08-07T06:40:48;2.00;;;1.90;;
5297;SDS011;14738;42.668;23.250;2023-08-07T06:43:13;2.53;;;2.40;;
5297;SDS011;14738;42.668;23.250;2023-08-07T06:45:39;2.30;;;2.10;;
5297;SDS011;14738;42.668;23.250;2023-08-07T06:48:04;1.90;;;1.80;;
5297;SDS011;14738;42.668;23.250;2023-08-07T06:50:30;1.60;;;1.60;;
5297;SDS011;14738;42.668;23.250;2023-08-07T06:52:55;1.70;;;1.60;;
5297;SDS011;14738;42.668;23.250;2023-08-07T06:55:22;1.53;;;1.53;;
5297;SDS011;14738;42.668;23.250;2023-08-07T06:57:47;1.80;;;1.70;;
5297;SDS011;14738;42.668;23.250;2023-08-07T07:00:13;2.50;;;1.87;;
5297;SDS011;14738;42.668;23.250;2023-08-07T07:02:39;1.90;;;1.80;;
5297;SDS011;14738;42.668;23.250;2023-08-07T07:05:04;1.80;;;1.80;;
5297;SDS011;14738;42.668;23.250;2023-08-07T07:07:30;2.07;;;1.97;;
5297;SDS011;14738;42.668;23.250;2023-08-07T07:09:56;2.10;;;2.00;;
5297;SDS011;14738;42.668;23.250;2023-08-07T07:12:23;1.90;;;1.90;;
5297;SDS011;14738;42.668;23.250;2023-08-07T07:14:48;2.27;;;2.17;;
5297;SDS011;14738;42.668;23.250;2023-08-07T07:17:14;1.80;;;1.80;;
5297;SDS011;14738;42.668;23.250;2023-08-07T07:19:39;2.20;;;2.07;;
5297;SDS011;14738;42.668;23.250;2023-08-07T07:22:05;2.27;;;2.07;;
5297;SDS011;14738;42.668;23.250;2023-08-07T07:24:30;2.03;;;1.93;;
5297;SDS011;14738;42.668;23.250;2023-08-07T07:26:56;1.80;;;1.70;;
5297;SDS011;14738;42.668;23.250;2023-08-07T07:29:21;2.00;;;1.90;;
5297;SDS011;14738;42.668;23.250;2023-08-07T07:31:47;1.90;;;1.80;;
5297;SDS011;14738;42.668;23.250;2023-08-07T07:34:12;2.20;;;1.87;;
5297;SDS011;14738;42.668;23.250;2023-08-07T07:36:38;1.83;;;1.73;;
5297;SDS011;14738;42.668;23.250;2023-08-07T07:39:03;6.00;;;1.80;;
5297;SDS011;14738;42.668;23.250;2023-08-07T07:41:28;2.03;;;1.93;;
5297;SDS011;14738;42.668;23.250;2023-08-07T07:43:54;2.07;;;1.90;;
5297;SDS011;14738;42.668;23.250;2023-08-07T07:46:21;2.10;;;2.00;;
5297;SDS011;14738;42.668;23.250;2023-08-07T07:48:48;1.90;;;1.90;;
5297;SDS011;14738;42.668;23.250;2023-08-07T07:51:14;2.13;;;1.93;;
5297;SDS011;14738;42.668;23.250;2023-08-07T07:53:39;1.60;;;1.60;;
5297;SDS011;14738;42.668;23.250;2023-08-07T07:56:04;1.70;;;1.60;;
5297;SDS011;14738;42.668;23.250;2023-08-07T07:58:30;1.90;;;1.80;;
5297;SDS011;14738;42.668;23.250;2023-08-07T08:00:56;2.00;;;1.90;;
5297;SDS011;14738;42.668;23.250;2023-08-07T08:03:21;1.37;;;1.37;;
5297;SDS011;14738;42.668;23.250;2023-08-07T08:05:49;1.80;;;1.80;;
5297;SDS011;14738;42.668;23.250;2023-08-07T08:08:15;1.63;;;1.63;;
5297;SDS011;14738;42.668;23.250;2023-08-07T08:10:41;3.13;;;2.00;;
5297;SDS011;14738;42.668;23.250;2023-08-07T08:13:08;2.10;;;2.00;;
5297;SDS011;14738;42.668;23.250;2023-08-07T08:15:34;2.07;;;1.97;;
5297;SDS011;14738;42.668;23.250;2023-08-07T08:18:00;2.57;;;2.00;;
5297;SDS011;14738;42.668;23.250;2023-08-07T08:20:26;1.90;;;1.90;;
5297;SDS011;14738;42.668;23.250;2023-08-07T08:22:51;1.90;;;1.80;;
5297;SDS011;14738;42.668;23.250;2023-08-07T08:25:16;2.70;;;1.90;;
5297;SDS011;14738;42.668;23.250;2023-08-07T08:27:45;2.37;;;2.27;;
5297;SDS011;14738;42.668;23.250;2023-08-07T08:30:10;2.10;;;2.00;;
5297;SDS011;14738;42.668;23.250;2023-08-07T08:32:36;1.93;;;1.83;;
5297;SDS011;14738;42.668;23.250;2023-08-07T08:35:01;1.90;;;1.80;;
5297;SDS011;14738;42.668;23.250;2023-08-07T08:37:27;2.17;;;2.07;;
5297;SDS011;14738;42.668;23.250;2023-08-07T08:39:54;2.33;;;2.23;;
5297;SDS011;14738;42.668;23.250;2023-08-07T08:42:19;2.30;;;2.10;;
5297;SDS011;14738;42.668;23.250;2023-08-07T08:44:46;2.13;;;2.03;;
5297;SDS011;14738;42.668;23.250;2023-08-07T08:47:16;1.90;;;1.80;;
5297;SDS011;14738;42.668;23.250;2023-08-07T08:49:46;2.30;;;2.17;;
5297;SDS011;14738;42.668;23.250;2023-08-07T08:52:13;1.83;;;1.73;;
5297;SDS011;14738;42.668;23.250;2023-08-07T08:54:45;2.23;;;2.13;;
5297;SDS011;14738;42.668;23.250;2023-08-07T08:57:11;2.43;;;2.33;;
5297;SDS011;14738;42.668;23.250;2023-08-07T08:59:38;1.90;;;1.80;;
5297;SDS011;14738;42.668;23.250;2023-08-07T09:02:05;2.40;;;2.30;;
5297;SDS011;14738;42.668;23.250;2023-08-07T09:04:31;2.20;;;2.10;;
5297;SDS011;14738;42.668;23.250;2023-08-07T09:06:56;2.20;;;2.10;;
5297;SDS011;14738;42.668;23.250;2023-08-07T09:09:22;2.40;;;2.30;;
5297;SDS011;14738;42.668;23.250;2023-08-07T09:11:48;2.43;;;2.33;;
5297;SDS011;14738;42.668;23.250;2023-08-07T09:14:16;3.87;;;2.10;;
5297;SDS011;14738;42.668;23.250;2023-08-07T09:16:47;2.00;;;1.90;;
5297;SDS011;14738;42.668;23.250;2023-08-07T09:19:14;2.10;;;2.00;;
5297;SDS011;14738;42.668;23.250;2023-08-07T09:21:39;4.17;;;2.10;;
5297;SDS011;14738;42.668;23.250;2023-08-07T09:24:05;4.73;;;2.53;;
5297;SDS011;14738;42.668;23.250;2023-08-07T09:26:31;2.30;;;2.20;;
5297;SDS011;14738;42.668;23.250;2023-08-07T09:28:58;2.30;;;2.20;;
5297;SDS011;14738;42.668;23.250;2023-08-07T09:31:24;2.20;;;2.10;;
5297;SDS011;14738;42.668;23.250;2023-08-07T09:34:00;2.30;;;2.20;;
5297;SDS011;14738;42.668;23.250;2023-08-07T09:36:29;1.73;;;1.73;;
5297;SDS011;14738;42.668;23.250;2023-08-07T09:38:55;2.23;;;2.13;;
5297;SDS011;14738;42.668;23.250;2023-08-07T09:41:21;2.00;;;1.90;;
5297;SDS011;14738;42.668;23.250;2023-08-07T09:43:46;2.40;;;2.20;;
5297;SDS011;14738;42.668;23.250;2023-08-07T09:46:12;2.00;;;1.90;;
5297;SDS011;14738;42.668;23.250;2023-08-07T09:48:41;2.10;;;2.00;;
5297;SDS011;14738;42.668;23.250;2023-08-07T09:51:08;2.00;;;1.90;;
5297;SDS011;14738;42.668;23.250;2023-08-07T09:53:34;2.20;;;2.10;;
5297;SDS011;14738;42.668;23.250;2023-08-07T09:56:00;2.00;;;1.90;;
5297;SDS011;14738;42.668;23.250;2023-08-07T09:58:26;2.33;;;2.23;;
5297;SDS011;14738;42.668;23.250;2023-08-07T10:00:53;2.20;;;2.10;;
5297;SDS011;14738;42.668;23.250;2023-08-07T10:03:19;2.23;;;2.13;;
5297;SDS011;14738;42.668;23.250;2023-08-07T10:05:45;1.80;;;1.80;;
5297;SDS011;14738;42.668;23.250;2023-08-07T10:08:11;2.43;;;2.23;;
5297;SDS011;14738;42.668;23.250;2023-08-07T10:10:38;2.23;;;2.13;;
5297;SDS011;14738;42.668;23.250;2023-08-07T10:13:04;2.50;;;2.40;;
5297;SDS011;14738;42.668;23.250;2023-08-07T10:15:30;3.03;;;2.73;;
5297;SDS011;14738;42.668;23.250;2023-08-07T10:17:57;3.00;;;2.43;;
5297;SDS011;14738;42.668;23.250;2023-08-07T10:20:26;2.10;;;2.00;;
5297;SDS011;14738;42.668;23.250;2023-08-07T10:22:52;2.30;;;2.10;;
5297;SDS011;14738;42.668;23.250;2023-08-07T10:25:22;2.67;;;2.57;;
5297;SDS011;14738;42.668;23.250;2023-08-07T10:27:52;2.40;;;2.30;;
5297;SDS011;14738;42.668;23.250;2023-08-07T10:30:20;2.10;;;2.00;;
5297;SDS011;14738;42.668;23.250;2023-08-07T10:32:49;2.10;;;2.00;;
5297;SDS011;14738;42.668;23.250;2023-08-07T10:35:25;1.90;;;1.90;;
5297;SDS011;14738;42.668;23.250;2023-08-07T10:37:54;2.20;;;2.10;;
5297;SDS011;14738;42.668;23.250;2023-08-07T10:40:29;2.13;;;2.03;;
5297;SDS011;14738;42.668;23.250;2023-08-07T10:43:16;2.40;;;2.20;;
5297;SDS011;14738;42.668;23.250;2023-08-07T10:45:42;2.10;;;2.00;;
5297;SDS011;14738;42.668;23.250;2023-08-07T10:48:10;2.37;;;2.20;;
5297;SDS011;14738;42.668;23.250;2023-08-07T10:53:29;2.20;;;2.10;;
5297;SDS011;14738;42.668;23.250;2023-08-07T10:55:57;2.07;;;1.97;;
5297;SDS011;14738;42.668;23.250;2023-08-07T10:58:30;2.20;;;2.10;;
5297;SDS011;14738;42.668;23.250;2023-08-07T11:03:54;2.00;;;1.90;;
5297;SDS011;14738;42.668;23.250;2023-08-07T11:06:22;2.80;;;2.30;;
5297;SDS011;14738;42.668;23.250;2023-08-07T11:09:08;4.30;;;1.93;;
5297;SDS011;14738;42.668;23.250;2023-08-07T11:11:44;6.80;;;2.20;;
5297;SDS011;14738;42.668;23.250;2023-08-07T11:14:13;2.40;;;2.30;;
5297;SDS011;14738;42.668;23.250;2023-08-07T11:16:40;1.70;;;1.70;;
5297;SDS011;14738;42.668;23.250;2023-08-07T11:19:06;2.50;;;2.40;;
5297;SDS011;14738;42.668;23.250;2023-08-07T11:21:33;2.23;;;2.10;;
5297;SDS011;14738;42.668;23.250;2023-08-07T11:23:59;2.63;;;2.10;;
5297;SDS011;14738;42.668;23.250;2023-08-07T11:26:26;4.40;;;2.00;;
5297;SDS011;14738;42.668;23.250;2023-08-07T11:28:53;2.23;;;2.13;;
5297;SDS011;14738;42.668;23.250;2023-08-07T11:31:22;2.63;;;2.20;;
5297;SDS011;14738;42.668;23.250;2023-08-07T11:33:50;1.93;;;1.90;;
5297;SDS011;14738;42.668;23.250;2023-08-07T11:36:17;2.57;;;2.37;;
5297;SDS011;14738;42.668;23.250;2023-08-07T11:38:43;2.47;;;2.27;;
5297;SDS011;14738;42.668;23.250;2023-08-07T11:41:10;3.17;;;2.10;;
5297;SDS011;14738;42.668;23.250;2023-08-07T11:43:37;2.17;;;2.03;;
5297;SDS011;14738;42.668;23.250;2023-08-07T11:46:05;2.60;;;2.40;;
5297;SDS011;14738;42.668;23.250;2023-08-07T11:48:35;2.23;;;2.07;;
5297;SDS011;14738;42.668;23.250;2023-08-07T11:51:02;2.10;;;2.00;;
5297;SDS011;14738;42.668;23.250;2023-08-07T11:53:29;2.07;;;1.97;;
5297;SDS011;14738;42.668;23.250;2023-08-07T11:56:00;2.20;;;2.10;;
5297;SDS011;14738;42.668;23.250;2023-08-07T11:58:42;2.93;;;2.73;;
5297;SDS011;14738;42.668;23.250;2023-08-07T12:01:17;2.10;;;2.00;;
5297;SDS011;14738;42.668;23.250;2023-08-07T12:03:51;2.20;;;2.13;;
5297;SDS011;14738;42.668;23.250;2023-08-07T12:06:21;3.47;;;2.40;;
5297;SDS011;14738;42.668;23.250;2023-08-07T12:08:48;2.03;;;1.93;;
5297;SDS011;14738;42.668;23.250;2023-08-07T12:11:17;2.00;;;2.00;;
5297;SDS011;14738;42.668;23.250;2023-08-07T12:13:45;2.10;;;2.00;;
5297;SDS011;14738;42.668;23.250;2023-08-07T12:16:11;2.30;;;2.20;;
5297;SDS011;14738;42.668;23.250;2023-08-07T12:18:45;2.07;;;1.97;;
5297;SDS011;14738;42.668;23.250;2023-08-07T12:21:13;2.20;;;2.00;;
5297;SDS011;14738;42.668;23.250;2023-08-07T12:23:47;2.00;;;2.00;;
5297;SDS011;14738;42.668;23.250;2023-08-07T12:26:16;2.40;;;2.30;;
5297;SDS011;14738;42.668;23.250;2023-08-07T12:28:42;2.50;;;2.00;;
5297;SDS011;14738;42.668;23.250;2023-08-07T12:31:08;4.43;;;2.40;;
5297;SDS011;14738;42.668;23.250;2023-08-07T12:33:34;2.47;;;2.03;;
5297;SDS011;14738;42.668;23.250;2023-08-07T12:35:59;2.63;;;2.30;;
5297;SDS011;14738;42.668;23.250;2023-08-07T12:38:26;4.77;;;2.10;;
5297;SDS011;14738;42.668;23.250;2023-08-07T12:40:52;2.23;;;2.13;;
5297;SDS011;14738;42.668;23.250;2023-08-07T12:43:17;7.90;;;2.60;;
5297;SDS011;14738;42.668;23.250;2023-08-07T12:45:43;2.07;;;1.97;;
5297;SDS011;14738;42.668;23.250;2023-08-07T12:48:09;2.20;;;2.00;;
5297;SDS011;14738;42.668;23.250;2023-08-07T12:50:35;2.97;;;2.53;;
5297;SDS011;14738;42.668;23.250;2023-08-07T12:53:01;2.30;;;2.20;;
5297;SDS011;14738;42.668;23.250;2023-08-07T12:55:27;4.10;;;2.37;;
5297;SDS011;14738;42.668;23.250;2023-08-07T12:57:53;2.33;;;2.13;;
5297;SDS011;14738;42.668;23.250;2023-08-07T13:00:19;2.37;;;2.27;;
5297;SDS011;14738;42.668;23.250;2023-08-07T13:02:46;3.70;;;2.50;;
5297;SDS011;14738;42.668;23.250;2023-08-07T13:05:13;2.20;;;2.10;;
5297;SDS011;14738;42.668;23.250;2023-08-07T13:07:40;5.27;;;3.17;;
5297;SDS011;14738;42.668;23.250;2023-08-07T13:10:07;2.20;;;2.10;;
5297;SDS011;14738;42.668;23.250;2023-08-07T13:12:38;3.00;;;2.10;;
5297;SDS011;14738;42.668;23.250;2023-08-07T13:15:05;2.40;;;2.30;;
5297;SDS011;14738;42.668;23.250;2023-08-07T13:17:33;2.30;;;2.20;;
5297;SDS011;14738;42.668;23.250;2023-08-07T13:19:59;2.50;;;2.40;;
5297;SDS011;14738;42.668;23.250;2023-08-07T13:22:36;2.50;;;2.30;;
5297;SDS011;14738;42.668;23.250;2023-08-07T13:25:02;2.13;;;2.03;;
5297;SDS011;14738;42.668;23.250;2023-08-07T13:27:29;2.10;;;2.00;;
5297;SDS011;14738;42.668;23.250;2023-08-07T13:29:55;3.13;;;2.60;;
5297;SDS011;14738;42.668;23.250;2023-08-07T13:32:20;2.23;;;2.13;;
5297;SDS011;14738;42.668;23.250;2023-08-07T13:34:46;2.63;;;2.43;;
5297;SDS011;14738;42.668;23.250;2023-08-07T13:37:11;2.00;;;2.00;;
5297;SDS011;14738;42.668;23.250;2023-08-07T13:39:38;2.27;;;2.17;;
5297;SDS011;14738;42.668;23.250;2023-08-07T13:42:03;3.13;;;2.50;;
5297;SDS011;14738;42.668;23.250;2023-08-07T13:44:29;3.97;;;2.20;;
5297;SDS011;14738;42.668;23.250;2023-08-07T13:46:54;2.40;;;2.30;;
5297;SDS011;14738;42.668;23.250;2023-08-07T13:49:21;2.27;;;2.17;;
5297;SDS011;14738;42.668;23.250;2023-08-07T13:51:47;2.80;;;2.60;;
5297;SDS011;14738;42.668;23.250;2023-08-07T13:54:12;2.50;;;2.40;;
5297;SDS011;14738;42.668;23.250;2023-08-07T13:56:38;4.63;;;3.20;;
5297;SDS011;14738;42.668;23.250;2023-08-07T13:59:03;2.57;;;2.47;;
5297;SDS011;14738;42.668;23.250;2023-08-07T14:01:28;2.47;;;2.30;;
5297;SDS011;14738;42.668;23.250;2023-08-07T14:03:54;3.13;;;2.80;;
5297;SDS011;14738;42.668;23.250;2023-08-07T14:06:20;2.50;;;2.40;;
5297;SDS011;14738;42.668;23.250;2023-08-07T14:08:45;2.53;;;2.40;;
5297;SDS011;14738;42.668;23.250;2023-08-07T14:11:11;2.80;;;2.17;;
5297;SDS011;14738;42.668;23.250;2023-08-07T14:13:39;2.90;;;2.70;;
5297;SDS011;14738;42.668;23.250;2023-08-07T14:16:05;2.50;;;2.40;;
5297;SDS011;14738;42.668;23.250;2023-08-07T14:18:30;4.43;;;2.57;;
5297;SDS011;14738;42.668;23.250;2023-08-07T14:20:56;3.43;;;2.47;;
5297;SDS011;14738;42.668;23.250;2023-08-07T14:23:21;2.40;;;2.30;;
5297;SDS011;14738;42.668;23.250;2023-08-07T14:25:47;2.43;;;2.23;;
5297;SDS011;14738;42.668;23.250;2023-08-07T14:28:15;3.00;;;2.70;;
5297;SDS011;14738;42.668;23.250;2023-08-07T14:30:41;2.57;;;2.37;;
5297;SDS011;14738;42.668;23.250;2023-08-07T14:33:07;3.70;;;2.87;;
5297;SDS011;14738;42.668;23.250;2023-08-07T14:35:32;3.43;;;2.60;;
5297;SDS011;14738;42.668;23.250;2023-08-07T14:37:57;2.90;;;2.53;;
5297;SDS011;14738;42.668;23.250;2023-08-07T14:40:23;2.70;;;2.40;;
5297;SDS011;14738;42.668;23.250;2023-08-07T14:42:48;2.57;;;2.47;;
5297;SDS011;14738;42.668;23.250;2023-08-07T14:45:14;2.27;;;2.07;;
5297;SDS011;14738;42.668;23.250;2023-08-07T14:47:40;2.40;;;2.13;;
5297;SDS011;14738;42.668;23.250;2023-08-07T14:50:06;2.23;;;2.13;;
5297;SDS011;14738;42.668;23.250;2023-08-07T14:52:31;2.40;;;2.30;;
5297;SDS011;14738;42.668;23.250;2023-08-07T14:54:57;2.37;;;2.23;;